Salomonia, Indiana
Current Conditions -  °F | °C
As of 7:55 AM on Thursday 23 Oct 2014 (Local Time) from KVES Reporting Station
Haze Haze  
Wind Chill: 32°   Ceiling: 200
Heat Index: 32°   Visibility: 0.75mi
Dew Point: 32°   Wind: 3mph
Humidity: 100%   Direction: 260°W
Pressure: 30.24"   Gusts: NA
Location:  40.3534°N, 84.8526°W
Report Text: KVES 231155Z AUTO 26003KT 3/4SM BR BKN002 00/00 A3024 RMK AO2
Loading
Personal Weather Stations






























Interactive Weather Map
Tropical Storm Tracking
New forecast layout! Learn more

10-Day Weather Forecast

Advertisements
Track Severe Weather on mobile